Login to view Products
 
Thursday, July 18, 2024 (14:58 UTC) 14
Fujairah International Airport
ICAO: OMFJ
IATA: FJR
  • METAR OMFJ 181400Z 11005KT 7000 NSC 36/28 Q0994 A2936=
  • TAF OMFJ 181100Z 1812/1818 08006KT 7000 NSC BECMG 1814/1816 15005KT BECMG 1906/1908 09010KT=
D:\Input Parser\Destinations\Final\11\OMFJL12181100944637641.txt
2